sensor_id;sensor_type;location;lat;lon;timestamp;P1;durP1;ratioP1;P2;durP2;ratioP2
1693;SDS011;71975;47.068;15.408;2024-03-23T00:54:38;6.93;;;4.73;;
1693;SDS011;71975;47.068;15.408;2024-03-23T00:59:40;6.30;;;4.90;;
1693;SDS011;71975;47.068;15.408;2024-03-23T01:04:41;5.83;;;5.23;;
1693;SDS011;71975;47.068;15.408;2024-03-23T01:09:45;7.30;;;6.60;;
1693;SDS011;71975;47.068;15.408;2024-03-23T01:14:47;6.30;;;5.70;;
1693;SDS011;71975;47.068;15.408;2024-03-23T01:19:49;5.60;;;5.10;;
1693;SDS011;71975;47.068;15.408;2024-03-23T01:24:52;7.17;;;6.10;;
1693;SDS011;71975;47.068;15.408;2024-03-23T01:29:54;9.23;;;7.03;;
1693;SDS011;71975;47.068;15.408;2024-03-23T01:34:56;7.00;;;5.50;;
1693;SDS011;71975;47.068;15.408;2024-03-23T01:39:59;6.83;;;6.13;;
1693;SDS011;71975;47.068;15.408;2024-03-23T01:45:01;6.10;;;5.60;;
1693;SDS011;71975;47.068;15.408;2024-03-23T01:50:05;6.50;;;5.90;;
1693;SDS011;71975;47.068;15.408;2024-03-23T01:55:09;9.20;;;7.30;;
1693;SDS011;71975;47.068;15.408;2024-03-23T02:00:11;7.23;;;6.47;;
1693;SDS011;71975;47.068;15.408;2024-03-23T02:05:14;8.20;;;5.87;;
1693;SDS011;71975;47.068;15.408;2024-03-23T02:10:17;6.93;;;6.23;;
1693;SDS011;71975;47.068;15.408;2024-03-23T02:15:19;7.03;;;6.33;;
1693;SDS011;71975;47.068;15.408;2024-03-23T02:20:21;8.17;;;6.60;;
1693;SDS011;71975;47.068;15.408;2024-03-23T02:25:24;7.27;;;6.03;;
1693;SDS011;71975;47.068;15.408;2024-03-23T02:30:26;5.90;;;5.30;;
1693;SDS011;71975;47.068;15.408;2024-03-23T02:35:28;7.00;;;5.87;;
1693;SDS011;71975;47.068;15.408;2024-03-23T02:40:32;7.27;;;6.57;;
1693;SDS011;71975;47.068;15.408;2024-03-23T02:45:34;8.20;;;6.07;;
1693;SDS011;71975;47.068;15.408;2024-03-23T02:50:36;5.83;;;5.33;;
1693;SDS011;71975;47.068;15.408;2024-03-23T02:55:39;5.37;;;4.80;;
1693;SDS011;71975;47.068;15.408;2024-03-23T03:00:41;5.50;;;5.00;;
1693;SDS011;71975;47.068;15.408;2024-03-23T03:05:43;8.70;;;6.63;;
1693;SDS011;71975;47.068;15.408;2024-03-23T03:10:46;8.33;;;6.40;;
1693;SDS011;71975;47.068;15.408;2024-03-23T03:15:48;7.47;;;6.77;;
1693;SDS011;71975;47.068;15.408;2024-03-23T03:20:53;8.77;;;5.97;;
1693;SDS011;71975;47.068;15.408;2024-03-23T03:25:57;8.83;;;6.27;;
1693;SDS011;71975;47.068;15.408;2024-03-23T03:30:59;6.57;;;5.90;;
1693;SDS011;71975;47.068;15.408;2024-03-23T03:36:01;7.03;;;5.97;;
1693;SDS011;71975;47.068;15.408;2024-03-23T03:41:04;6.87;;;5.73;;
1693;SDS011;71975;47.068;15.408;2024-03-23T03:46:07;6.50;;;5.53;;
1693;SDS011;71975;47.068;15.408;2024-03-23T03:51:10;7.60;;;6.83;;
1693;SDS011;71975;47.068;15.408;2024-03-23T03:56:13;6.90;;;6.23;;
1693;SDS011;71975;47.068;15.408;2024-03-23T04:01:15;12.50;;;6.93;;
1693;SDS011;71975;47.068;15.408;2024-03-23T04:06:20;6.40;;;5.80;;
1693;SDS011;71975;47.068;15.408;2024-03-23T04:11:24;5.23;;;4.67;;
1693;SDS011;71975;47.068;15.408;2024-03-23T04:16:26;5.03;;;4.63;;
1693;SDS011;71975;47.068;15.408;2024-03-23T04:21:29;5.70;;;5.20;;
1693;SDS011;71975;47.068;15.408;2024-03-23T04:26:32;6.57;;;5.43;;
1693;SDS011;71975;47.068;15.408;2024-03-23T04:31:42;5.80;;;5.20;;
1693;SDS011;71975;47.068;15.408;2024-03-23T04:36:44;5.40;;;5.00;;
1693;SDS011;71975;47.068;15.408;2024-03-23T04:41:47;6.23;;;5.73;;
1693;SDS011;71975;47.068;15.408;2024-03-23T04:46:49;6.00;;;5.40;;
1693;SDS011;71975;47.068;15.408;2024-03-23T04:51:51;9.67;;;5.70;;
1693;SDS011;71975;47.068;15.408;2024-03-23T04:56:54;7.00;;;5.93;;
1693;SDS011;71975;47.068;15.408;2024-03-23T05:01:56;7.17;;;6.40;;
1693;SDS011;71975;47.068;15.408;2024-03-23T05:06:58;6.60;;;6.00;;
1693;SDS011;71975;47.068;15.408;2024-03-23T05:12:01;6.50;;;5.90;;
1693;SDS011;71975;47.068;15.408;2024-03-23T05:17:03;8.00;;;6.57;;
1693;SDS011;71975;47.068;15.408;2024-03-23T05:22:05;8.80;;;7.93;;
1693;SDS011;71975;47.068;15.408;2024-03-23T05:27:09;11.17;;;8.10;;
1693;SDS011;71975;47.068;15.408;2024-03-23T05:32:10;9.23;;;8.13;;
1693;SDS011;71975;47.068;15.408;2024-03-23T05:37:12;10.90;;;8.27;;
1693;SDS011;71975;47.068;15.408;2024-03-23T05:42:16;13.73;;;8.60;;
1693;SDS011;71975;47.068;15.408;2024-03-23T05:47:18;10.33;;;9.43;;
1693;SDS011;71975;47.068;15.408;2024-03-23T05:52:20;14.10;;;10.27;;
1693;SDS011;71975;47.068;15.408;2024-03-23T05:57:23;10.53;;;9.57;;
1693;SDS011;71975;47.068;15.408;2024-03-23T06:02:26;11.83;;;9.17;;
1693;SDS011;71975;47.068;15.408;2024-03-23T06:07:28;9.70;;;8.80;;
1693;SDS011;71975;47.068;15.408;2024-03-23T06:12:31;12.50;;;9.83;;
1693;SDS011;71975;47.068;15.408;2024-03-23T06:17:33;9.77;;;8.87;;
1693;SDS011;71975;47.068;15.408;2024-03-23T06:22:35;10.70;;;8.73;;
1693;SDS011;71975;47.068;15.408;2024-03-23T06:27:38;9.70;;;8.40;;
1693;SDS011;71975;47.068;15.408;2024-03-23T06:32:40;12.13;;;8.97;;
1693;SDS011;71975;47.068;15.408;2024-03-23T06:37:42;9.87;;;8.90;;
1693;SDS011;71975;47.068;15.408;2024-03-23T06:42:45;9.03;;;7.50;;
1693;SDS011;71975;47.068;15.408;2024-03-23T06:47:47;9.63;;;8.73;;
1693;SDS011;71975;47.068;15.408;2024-03-23T06:52:49;9.27;;;8.30;;
1693;SDS011;71975;47.068;15.408;2024-03-23T06:57:52;10.07;;;8.70;;
1693;SDS011;71975;47.068;15.408;2024-03-23T07:02:54;11.03;;;9.07;;
1693;SDS011;71975;47.068;15.408;2024-03-23T07:07:56;9.20;;;8.30;;
1693;SDS011;71975;47.068;15.408;2024-03-23T07:13:00;9.73;;;8.13;;
1693;SDS011;71975;47.068;15.408;2024-03-23T07:18:02;9.63;;;8.67;;
1693;SDS011;71975;47.068;15.408;2024-03-23T07:23:06;11.23;;;10.03;;
1693;SDS011;71975;47.068;15.408;2024-03-23T07:28:09;10.80;;;9.80;;
1693;SDS011;71975;47.068;15.408;2024-03-23T07:33:11;13.70;;;9.67;;
1693;SDS011;71975;47.068;15.408;2024-03-23T07:38:13;11.23;;;9.33;;
1693;SDS011;71975;47.068;15.408;2024-03-23T07:43:17;13.07;;;9.90;;
1693;SDS011;71975;47.068;15.408;2024-03-23T07:48:18;10.90;;;9.00;;
1693;SDS011;71975;47.068;15.408;2024-03-23T07:53:23;9.10;;;8.27;;
1693;SDS011;71975;47.068;15.408;2024-03-23T07:58:26;10.73;;;9.70;;
1693;SDS011;71975;47.068;15.408;2024-03-23T08:03:28;8.33;;;7.60;;
1693;SDS011;71975;47.068;15.408;2024-03-23T08:08:30;13.87;;;8.27;;
1693;SDS011;71975;47.068;15.408;2024-03-23T08:13:34;9.43;;;8.47;;
1693;SDS011;71975;47.068;15.408;2024-03-23T08:18:36;12.80;;;9.70;;
1693;SDS011;71975;47.068;15.408;2024-03-23T08:23:38;9.93;;;8.80;;
1693;SDS011;71975;47.068;15.408;2024-03-23T08:28:42;10.40;;;9.07;;
1693;SDS011;71975;47.068;15.408;2024-03-23T08:33:44;13.57;;;9.00;;
1693;SDS011;71975;47.068;15.408;2024-03-23T08:38:47;9.70;;;8.00;;
1693;SDS011;71975;47.068;15.408;2024-03-23T08:43:52;11.60;;;9.00;;
1693;SDS011;71975;47.068;15.408;2024-03-23T08:48:54;10.80;;;9.20;;
1693;SDS011;71975;47.068;15.408;2024-03-23T08:53:56;12.80;;;8.80;;
1693;SDS011;71975;47.068;15.408;2024-03-23T08:58:59;10.60;;;7.27;;
1693;SDS011;71975;47.068;15.408;2024-03-23T09:04:01;8.33;;;7.63;;
1693;SDS011;71975;47.068;15.408;2024-03-23T09:09:03;10.73;;;8.30;;
1693;SDS011;71975;47.068;15.408;2024-03-23T09:14:06;13.63;;;8.93;;
1693;SDS011;71975;47.068;15.408;2024-03-23T09:19:09;8.43;;;7.73;;
1693;SDS011;71975;47.068;15.408;2024-03-23T09:24:11;8.67;;;7.80;;
1693;SDS011;71975;47.068;15.408;2024-03-23T09:29:14;9.20;;;8.37;;
1693;SDS011;71975;47.068;15.408;2024-03-23T09:34:16;8.90;;;8.00;;
1693;SDS011;71975;47.068;15.408;2024-03-23T09:39:18;6.60;;;6.10;;
1693;SDS011;71975;47.068;15.408;2024-03-23T09:44:22;8.00;;;7.40;;
1693;SDS011;71975;47.068;15.408;2024-03-23T09:49:24;8.90;;;7.13;;
1693;SDS011;71975;47.068;15.408;2024-03-23T09:54:26;7.90;;;7.07;;
1693;SDS011;71975;47.068;15.408;2024-03-23T09:59:30;6.50;;;5.90;;
1693;SDS011;71975;47.068;15.408;2024-03-23T10:04:37;6.33;;;5.57;;
1693;SDS011;71975;47.068;15.408;2024-03-23T10:09:39;4.93;;;4.53;;
1693;SDS011;71975;47.068;15.408;2024-03-23T10:14:43;5.40;;;4.93;;
1693;SDS011;71975;47.068;15.408;2024-03-23T10:19:47;5.70;;;5.20;;
1693;SDS011;71975;47.068;15.408;2024-03-23T10:24:50;4.43;;;4.00;;
1693;SDS011;71975;47.068;15.408;2024-03-23T10:29:54;4.80;;;4.30;;
1693;SDS011;71975;47.068;15.408;2024-03-23T10:35:15;4.63;;;4.20;;
1693;SDS011;71975;47.068;15.408;2024-03-23T10:40:19;4.90;;;4.53;;
1693;SDS011;71975;47.068;15.408;2024-03-23T10:45:22;5.83;;;5.33;;
1693;SDS011;71975;47.068;15.408;2024-03-23T10:50:24;4.90;;;4.50;;
1693;SDS011;71975;47.068;15.408;2024-03-23T10:55:27;5.63;;;4.83;;
1693;SDS011;71975;47.068;15.408;2024-03-23T11:00:31;6.07;;;4.30;;
1693;SDS011;71975;47.068;15.408;2024-03-23T11:05:33;4.33;;;3.93;;
1693;SDS011;71975;47.068;15.408;2024-03-23T11:10:35;4.70;;;4.40;;
1693;SDS011;71975;47.068;15.408;2024-03-23T11:15:39;5.50;;;5.00;;
1693;SDS011;71975;47.068;15.408;2024-03-23T11:20:40;8.03;;;7.33;;
1693;SDS011;71975;47.068;15.408;2024-03-23T11:25:42;5.60;;;5.20;;
1693;SDS011;71975;47.068;15.408;2024-03-23T11:30:46;5.00;;;4.50;;
1693;SDS011;71975;47.068;15.408;2024-03-23T11:35:49;5.50;;;5.10;;
1693;SDS011;71975;47.068;15.408;2024-03-23T11:40:51;8.37;;;6.83;;
1693;SDS011;71975;47.068;15.408;2024-03-23T11:45:55;5.67;;;5.07;;
1693;SDS011;71975;47.068;15.408;2024-03-23T11:50:58;5.27;;;4.87;;
1693;SDS011;71975;47.068;15.408;2024-03-23T11:55:59;9.90;;;9.17;;
1693;SDS011;71975;47.068;15.408;2024-03-23T12:01:03;7.93;;;6.20;;
1693;SDS011;71975;47.068;15.408;2024-03-23T12:06:05;8.20;;;5.37;;
1693;SDS011;71975;47.068;15.408;2024-03-23T12:11:08;9.83;;;9.13;;
1693;SDS011;71975;47.068;15.408;2024-03-23T12:16:14;5.97;;;5.57;;
1693;SDS011;71975;47.068;15.408;2024-03-23T12:21:17;7.20;;;6.50;;
1693;SDS011;71975;47.068;15.408;2024-03-23T12:26:19;6.83;;;6.33;;
1693;SDS011;71975;47.068;15.408;2024-03-23T12:31:22;6.90;;;6.20;;
1693;SDS011;71975;47.068;15.408;2024-03-23T12:36:25;6.37;;;5.87;;
1693;SDS011;71975;47.068;15.408;2024-03-23T12:41:27;6.87;;;6.37;;
1693;SDS011;71975;47.068;15.408;2024-03-23T12:46:30;7.10;;;6.43;;
1693;SDS011;71975;47.068;15.408;2024-03-23T12:51:33;6.70;;;6.10;;
1693;SDS011;71975;47.068;15.408;2024-03-23T12:56:35;5.20;;;4.83;;
1693;SDS011;71975;47.068;15.408;2024-03-23T13:01:38;4.93;;;4.53;;
1693;SDS011;71975;47.068;15.408;2024-03-23T13:06:41;5.73;;;5.23;;
1693;SDS011;71975;47.068;15.408;2024-03-23T13:11:43;5.97;;;5.20;;
1693;SDS011;71975;47.068;15.408;2024-03-23T13:16:46;5.10;;;4.70;;
1693;SDS011;71975;47.068;15.408;2024-03-23T13:21:48;4.93;;;4.53;;
1693;SDS011;71975;47.068;15.408;2024-03-23T13:26:50;6.50;;;6.00;;
1693;SDS011;71975;47.068;15.408;2024-03-23T13:31:54;5.90;;;4.87;;
1693;SDS011;71975;47.068;15.408;2024-03-23T13:36:56;8.37;;;4.77;;
1693;SDS011;71975;47.068;15.408;2024-03-23T13:41:59;4.93;;;4.53;;
1693;SDS011;71975;47.068;15.408;2024-03-23T13:47:02;4.80;;;4.30;;
1693;SDS011;71975;47.068;15.408;2024-03-23T13:52:05;6.60;;;5.63;;
1693;SDS011;71975;47.068;15.408;2024-03-23T13:57:07;6.00;;;5.40;;
1693;SDS011;71975;47.068;15.408;2024-03-23T14:02:12;5.47;;;4.73;;
1693;SDS011;71975;47.068;15.408;2024-03-23T14:07:15;5.77;;;5.27;;
1693;SDS011;71975;47.068;15.408;2024-03-23T14:12:18;5.57;;;5.07;;
1693;SDS011;71975;47.068;15.408;2024-03-23T14:17:21;5.87;;;5.30;;
1693;SDS011;71975;47.068;15.408;2024-03-23T14:22:23;5.27;;;4.70;;
1693;SDS011;71975;47.068;15.408;2024-03-23T14:27:26;5.00;;;4.60;;
1693;SDS011;71975;47.068;15.408;2024-03-23T14:32:30;5.33;;;3.97;;
1693;SDS011;71975;47.068;15.408;2024-03-23T14:37:34;4.30;;;4.00;;
1693;SDS011;71975;47.068;15.408;2024-03-23T14:42:36;5.37;;;4.90;;
1693;SDS011;71975;47.068;15.408;2024-03-23T14:47:39;5.43;;;5.00;;
1693;SDS011;71975;47.068;15.408;2024-03-23T14:52:43;6.90;;;5.53;;
1693;SDS011;71975;47.068;15.408;2024-03-23T14:57:47;4.97;;;4.40;;
1693;SDS011;71975;47.068;15.408;2024-03-23T15:02:52;5.93;;;4.87;;
1693;SDS011;71975;47.068;15.408;2024-03-23T15:07:54;4.30;;;3.90;;
1693;SDS011;71975;47.068;15.408;2024-03-23T15:12:56;5.47;;;2.73;;
1693;SDS011;71975;47.068;15.408;2024-03-23T15:17:59;5.50;;;2.00;;
1693;SDS011;71975;47.068;15.408;2024-03-23T15:23:01;5.60;;;2.03;;
1693;SDS011;71975;47.068;15.408;2024-03-23T15:28:04;2.53;;;1.00;;
1693;SDS011;71975;47.068;15.408;2024-03-23T15:33:07;2.20;;;0.93;;
1693;SDS011;71975;47.068;15.408;2024-03-23T15:38:09;2.50;;;0.70;;
1693;SDS011;71975;47.068;15.408;2024-03-23T15:43:11;2.63;;;1.50;;
1693;SDS011;71975;47.068;15.408;2024-03-23T15:48:14;1.60;;;0.50;;
1693;SDS011;71975;47.068;15.408;2024-03-23T15:53:16;0.97;;;0.50;;
1693;SDS011;71975;47.068;15.408;2024-03-23T15:58:18;3.07;;;0.60;;
1693;SDS011;71975;47.068;15.408;2024-03-23T16:03:22;0.90;;;0.50;;
1693;SDS011;71975;47.068;15.408;2024-03-23T16:08:24;1.63;;;0.60;;
1693;SDS011;71975;47.068;15.408;2024-03-23T16:13:26;0.70;;;0.40;;
1693;SDS011;71975;47.068;15.408;2024-03-23T16:18:30;0.90;;;0.60;;
1693;SDS011;71975;47.068;15.408;2024-03-23T16:23:32;1.20;;;0.60;;
1693;SDS011;71975;47.068;15.408;2024-03-23T16:28:35;2.17;;;0.90;;
1693;SDS011;71975;47.068;15.408;2024-03-23T16:33:39;0.93;;;0.30;;
1693;SDS011;71975;47.068;15.408;2024-03-23T16:38:41;0.50;;;0.30;;
1693;SDS011;71975;47.068;15.408;2024-03-23T16:43:43;0.60;;;0.30;;
1693;SDS011;71975;47.068;15.408;2024-03-23T16:48:47;0.70;;;0.37;;
1693;SDS011;71975;47.068;15.408;2024-03-23T16:53:49;1.67;;;0.43;;
1693;SDS011;71975;47.068;15.408;2024-03-23T16:58:51;0.70;;;0.50;;
1693;SDS011;71975;47.068;15.408;2024-03-23T17:03:55;0.77;;;0.40;;
1693;SDS011;71975;47.068;15.408;2024-03-23T17:08:58;0.60;;;0.30;;
1693;SDS011;71975;47.068;15.408;2024-03-23T17:14:00;0.60;;;0.40;;
1693;SDS011;71975;47.068;15.408;2024-03-23T17:19:04;0.90;;;0.50;;
1693;SDS011;71975;47.068;15.408;2024-03-23T17:24:05;1.03;;;0.53;;
1693;SDS011;71975;47.068;15.408;2024-03-23T17:29:09;0.60;;;0.40;;
1693;SDS011;71975;47.068;15.408;2024-03-23T17:34:12;0.97;;;0.60;;
1693;SDS011;71975;47.068;15.408;2024-03-23T17:39:14;0.80;;;0.40;;
1693;SDS011;71975;47.068;15.408;2024-03-23T17:44:16;1.63;;;0.50;;
1693;SDS011;71975;47.068;15.408;2024-03-23T17:49:20;0.70;;;0.50;;
1693;SDS011;71975;47.068;15.408;2024-03-23T17:54:22;0.73;;;0.40;;
1693;SDS011;71975;47.068;15.408;2024-03-23T17:59:24;0.70;;;0.50;;
1693;SDS011;71975;47.068;15.408;2024-03-23T18:04:28;0.70;;;0.50;;
1693;SDS011;71975;47.068;15.408;2024-03-23T18:09:29;0.80;;;0.60;;
1693;SDS011;71975;47.068;15.408;2024-03-23T18:14:31;4.70;;;3.80;;
1693;SDS011;71975;47.068;15.408;2024-03-23T18:19:35;0.90;;;0.60;;
1693;SDS011;71975;47.068;15.408;2024-03-23T18:24:36;2.13;;;1.43;;
1693;SDS011;71975;47.068;15.408;2024-03-23T18:29:38;1.17;;;0.90;;
1693;SDS011;71975;47.068;15.408;2024-03-23T18:34:43;0.70;;;0.50;;
1693;SDS011;71975;47.068;15.408;2024-03-23T18:39:45;6.73;;;4.90;;
1693;SDS011;71975;47.068;15.408;2024-03-23T18:44:47;1.10;;;0.97;;
1693;SDS011;71975;47.068;15.408;2024-03-23T18:49:50;1.23;;;0.70;;
1693;SDS011;71975;47.068;15.408;2024-03-23T18:54:53;0.80;;;0.60;;
1693;SDS011;71975;47.068;15.408;2024-03-23T18:59:55;0.90;;;0.60;;
1693;SDS011;71975;47.068;15.408;2024-03-23T19:04:59;1.13;;;1.03;;
1693;SDS011;71975;47.068;15.408;2024-03-23T19:10:01;1.50;;;1.17;;
1693;SDS011;71975;47.068;15.408;2024-03-23T19:15:06;1.40;;;0.83;;
1693;SDS011;71975;47.068;15.408;2024-03-23T19:20:11;1.20;;;0.77;;
1693;SDS011;71975;47.068;15.408;2024-03-23T19:25:14;1.30;;;1.00;;
1693;SDS011;71975;47.068;15.408;2024-03-23T19:30:16;1.53;;;1.00;;
1693;SDS011;71975;47.068;15.408;2024-03-23T19:35:19;1.57;;;1.07;;
1693;SDS011;71975;47.068;15.408;2024-03-23T19:40:21;0.90;;;0.73;;
1693;SDS011;71975;47.068;15.408;2024-03-23T19:45:23;3.23;;;1.33;;
1693;SDS011;71975;47.068;15.408;2024-03-23T19:50:27;3.63;;;1.10;;
1693;SDS011;71975;47.068;15.408;2024-03-23T19:55:29;1.40;;;0.97;;
1693;SDS011;71975;47.068;15.408;2024-03-23T20:00:31;1.20;;;0.70;;
1693;SDS011;71975;47.068;15.408;2024-03-23T20:05:34;1.43;;;0.70;;
1693;SDS011;71975;47.068;15.408;2024-03-23T20:10:36;2.13;;;1.53;;
1693;SDS011;71975;47.068;15.408;2024-03-23T20:15:38;1.20;;;0.50;;
1693;SDS011;71975;47.068;15.408;2024-03-23T20:20:44;1.23;;;0.70;;
1693;SDS011;71975;47.068;15.408;2024-03-23T20:25:52;2.03;;;1.87;;
1693;SDS011;71975;47.068;15.408;2024-03-23T20:30:56;2.00;;;1.20;;
1693;SDS011;71975;47.068;15.408;2024-03-23T20:36:02;0.60;;;0.40;;
1693;SDS011;71975;47.068;15.408;2024-03-23T20:41:05;1.80;;;1.37;;
1693;SDS011;71975;47.068;15.408;2024-03-23T20:46:07;0.80;;;0.60;;
1693;SDS011;71975;47.068;15.408;2024-03-23T20:51:11;1.13;;;0.60;;
1693;SDS011;71975;47.068;15.408;2024-03-23T20:56:13;1.20;;;0.90;;
1693;SDS011;71975;47.068;15.408;2024-03-23T21:01:15;8.53;;;3.50;;
1693;SDS011;71975;47.068;15.408;2024-03-23T21:06:19;5.50;;;3.13;;
1693;SDS011;71975;47.068;15.408;2024-03-23T21:11:21;4.10;;;2.60;;
1693;SDS011;71975;47.068;15.408;2024-03-23T21:16:24;3.00;;;2.03;;
1693;SDS011;71975;47.068;15.408;2024-03-23T21:21:27;1.23;;;0.90;;
1693;SDS011;71975;47.068;15.408;2024-03-23T21:26:30;6.17;;;3.67;;
1693;SDS011;71975;47.068;15.408;2024-03-23T21:31:33;1.57;;;1.17;;
1693;SDS011;71975;47.068;15.408;2024-03-23T21:36:36;2.23;;;0.90;;
1693;SDS011;71975;47.068;15.408;2024-03-23T21:41:38;2.80;;;1.43;;
1693;SDS011;71975;47.068;15.408;2024-03-23T21:46:40;1.73;;;1.20;;
1693;SDS011;71975;47.068;15.408;2024-03-23T21:51:44;1.47;;;0.93;;
1693;SDS011;71975;47.068;15.408;2024-03-23T21:56:45;1.20;;;0.67;;
1693;SDS011;71975;47.068;15.408;2024-03-23T22:01:47;2.00;;;1.43;;
1693;SDS011;71975;47.068;15.408;2024-03-23T22:06:51;1.70;;;1.30;;
1693;SDS011;71975;47.068;15.408;2024-03-23T22:11:53;1.20;;;0.83;;
1693;SDS011;71975;47.068;15.408;2024-03-23T22:16:55;2.73;;;1.50;;
1693;SDS011;71975;47.068;15.408;2024-03-23T22:21:58;2.13;;;1.30;;
1693;SDS011;71975;47.068;15.408;2024-03-23T22:27:00;3.40;;;2.20;;
1693;SDS011;71975;47.068;15.408;2024-03-23T22:32:02;1.97;;;0.80;;
1693;SDS011;71975;47.068;15.408;2024-03-23T22:37:06;2.70;;;1.67;;
1693;SDS011;71975;47.068;15.408;2024-03-23T22:42:08;2.10;;;1.17;;
1693;SDS011;71975;47.068;15.408;2024-03-23T22:47:10;3.50;;;1.70;;
1693;SDS011;71975;47.068;15.408;2024-03-23T22:52:13;0.87;;;0.70;;
1693;SDS011;71975;47.068;15.408;2024-03-23T22:57:15;1.60;;;1.47;;
1693;SDS011;71975;47.068;15.408;2024-03-23T23:02:17;1.27;;;1.07;;
1693;SDS011;71975;47.068;15.408;2024-03-23T23:07:20;2.00;;;1.60;;
1693;SDS011;71975;47.068;15.408;2024-03-23T23:12:22;1.67;;;1.10;;
1693;SDS011;71975;47.068;15.408;2024-03-23T23:17:24;2.40;;;1.50;;
1693;SDS011;71975;47.068;15.408;2024-03-23T23:22:28;2.60;;;1.60;;
1693;SDS011;71975;47.068;15.408;2024-03-23T23:27:30;2.17;;;1.57;;
1693;SDS011;71975;47.068;15.408;2024-03-23T23:32:32;2.20;;;1.43;;
1693;SDS011;71975;47.068;15.408;2024-03-23T23:37:35;1.57;;;1.20;;
1693;SDS011;71975;47.068;15.408;2024-03-23T23:42:37;2.20;;;1.13;;
1693;SDS011;71975;47.068;15.408;2024-03-23T23:47:39;1.60;;;1.23;;
1693;SDS011;71975;47.068;15.408;2024-03-23T23:52:42;1.60;;;1.27;;
1693;SDS011;71975;47.068;15.408;2024-03-23T23:57:44;1.20;;;1.10;;
